Time;durP1;ratioP1;P1;durP2;ratioP2;P2;SDS_P1;SDS_P2;PMS_P1;PMS_P2;Temp;Humidity;BMP_temperature;BMP_pressure;BME280_temperature;BME280_humidity;BME280_pressure;Samples;Min_cycle;Max_cycle;Signal;HPM_P1;HPM_P2
2024/04/09 00:05:46;;;;;;;;;;;12.20;48.20;;;;;;22420393;26;20345;-57
2024/04/09 00:15:47;;;;;;;;;;;12.30;49.20;;;;;;22419949;26;19929;-58
2024/04/09 00:25:49;;;;;;;;;;;12.10;48.70;;;;;;22418833;26;19929;-56
2024/04/09 00:35:51;;;;;;;;;;;12.00;48.30;;;;;;22418659;26;19935;-57
2024/04/09 00:45:53;;;;;;;;;;;11.90;50.90;;;;;;22432603;26;19962;-57
2024/04/09 00:55:55;;;;;;;;;;;11.80;49.10;;;;;;22431787;26;19941;-57
2024/04/09 01:05:57;;;;;;;;;;;11.70;49.80;;;;;;22430083;26;19968;-57
2024/04/09 01:15:58;;;;;;;;;;;11.60;51.90;;;;;;22430932;26;19936;-58
2024/04/09 01:26:00;;;;;;;;;;;11.40;51.40;;;;;;22429242;26;19929;-57
2024/04/09 01:36:04;;;;;;;;;;;11.30;50.30;;;;;;22428639;26;19929;-57
2024/04/09 01:46:10;;;;;;;;;;;11.40;51.70;;;;;;22428833;26;20360;-57
2024/04/09 01:56:11;;;;;;;;;;;11.20;50.70;;;;;;22427065;26;19933;-58
2024/04/09 02:06:15;;;;;;;;;;;11.00;52.10;;;;;;22428068;26;19933;-58
2024/04/09 02:16:16;;;;;;;;;;;10.80;50.30;;;;;;22427244;26;19997;-58
2024/04/09 02:26:17;;;;;;;;;;;10.80;50.50;;;;;;22426791;26;19929;-58
2024/04/09 02:36:18;;;;;;;;;;;11.10;52.30;;;;;;22427105;26;19978;-58
2024/04/09 02:46:19;;;;;;;;;;;11.00;51.10;;;;;;22426340;26;19966;-57
2024/04/09 02:56:20;;;;;;;;;;;11.20;50.40;;;;;;22424772;26;19936;-57
2024/04/09 03:06:22;;;;;;;;;;;11.30;51.50;;;;;;22423440;26;19940;-57
2024/04/09 03:16:23;;;;;;;;;;;11.30;51.40;;;;;;22424122;26;20284;-57
2024/04/09 03:26:25;;;;;;;;;;;11.20;49.70;;;;;;22423646;26;20003;-58
2024/04/09 03:36:26;;;;;;;;;;;11.00;49.10;;;;;;22422972;26;20362;-57
2024/04/09 03:46:27;;;;;;;;;;;11.00;49.10;;;;;;22422319;26;19961;-56
2024/04/09 03:56:28;;;;;;;;;;;10.90;49.30;;;;;;22420781;26;19964;-57
2024/04/09 04:06:29;;;;;;;;;;;10.90;49.60;;;;;;22420469;26;19987;-57
2024/04/09 04:16:31;;;;;;;;;;;10.80;49.20;;;;;;22428374;26;20363;-58
2024/04/09 04:26:32;;;;;;;;;;;10.60;48.90;;;;;;22434969;26;19966;-58
2024/04/09 04:36:33;;;;;;;;;;;10.40;49.30;;;;;;22433129;26;19966;-57
2024/04/09 04:46:34;;;;;;;;;;;10.30;49.60;;;;;;22432298;26;19929;-57
2024/04/09 04:56:35;;;;;;;;;;;10.20;49.50;;;;;;22431582;26;19929;-58
2024/04/09 05:06:36;;;;;;;;;;;10.20;49.90;;;;;;22430960;26;20259;-57
2024/04/09 05:16:37;;;;;;;;;;;10.20;49.30;;;;;;22429741;26;19929;-57
2024/04/09 05:26:41;;;;;;;;;;;10.20;50.30;;;;;;22427790;26;19940;-58
2024/04/09 05:36:43;;;;;;;;;;;10.20;50.10;;;;;;22428651;26;19929;-59
2024/04/09 05:46:45;;;;;;;;;;;10.20;51.30;;;;;;22427788;26;19936;-57
2024/04/09 05:56:46;;;;;;;;;;;10.20;50.30;;;;;;22428171;26;19936;-57
2024/04/09 06:06:47;;;;;;;;;;;10.10;50.70;;;;;;22427294;26;20292;-58
2024/04/09 06:16:48;;;;;;;;;;;10.20;49.80;;;;;;22426258;26;19933;-59
2024/04/09 06:26:49;;;;;;;;;;;10.10;49.70;;;;;;22425969;26;19928;-56
2024/04/09 06:36:50;;;;;;;;;;;10.20;49.40;;;;;;22424511;26;19937;-58
2024/04/09 06:46:52;;;;;;;;;;;10.20;48.80;;;;;;22424879;26;19936;-57
2024/04/09 06:56:53;;;;;;;;;;;10.20;48.70;;;;;;22423048;26;20043;-58
2024/04/09 07:06:54;;;;;;;;;;;10.70;47.00;;;;;;22421462;26;19961;-57
2024/04/09 07:16:55;;;;;;;;;;;11.00;47.00;;;;;;22421725;26;19945;-57
2024/04/09 07:26:56;;;;;;;;;;;;;;;;;;22420535;26;20008;-58
2024/04/09 07:36:57;;;;;;;;;;;11.50;44.10;;;;;;22420087;26;19936;-58
2024/04/09 07:46:58;;;;;;;;;;;11.60;43.80;;;;;;22418891;26;19956;-58
2024/04/09 07:57:01;;;;;;;;;;;11.80;43.70;;;;;;22418142;26;19933;-58
2024/04/09 08:07:04;;;;;;;;;;;11.90;43.80;;;;;;22416863;26;21398;-57
2024/04/09 08:17:06;;;;;;;;;;;12.20;44.30;;;;;;22417057;26;20015;-58
2024/04/09 08:27:08;;;;;;;;;;;12.70;44.50;;;;;;22415862;26;20316;-58
2024/04/09 08:37:09;;;;;;;;;;;12.90;43.10;;;;;;22416341;26;19997;-58
2024/04/09 08:47:10;;;;;;;;;;;13.00;43.00;;;;;;22414678;26;19941;-58
2024/04/09 08:57:13;;;;;;;;;;;13.20;42.50;;;;;;22415409;26;20359;-58
2024/04/09 09:07:15;;;;;;;;;;;13.30;43.10;;;;;;22428497;26;19936;-58
2024/04/09 09:17:16;;;;;;;;;;;13.30;39.60;;;;;;22427894;26;20392;-55
2024/04/09 09:27:19;;;;;;;;;;;14.70;48.50;;;;;;22428493;26;19929;-54
2024/04/09 09:37:21;;;;;;;;;;;15.70;41.60;;;;;;22427460;26;19965;-55
2024/04/09 09:47:22;;;;;;;;;;;16.00;38.10;;;;;;22426746;26;19998;-55
2024/04/09 09:57:24;;;;;;;;;;;16.00;36.80;;;;;;22574804;26;19932;-55
2024/04/09 10:07:27;;;;;;;;;;;16.00;36.00;;;;;;22466304;26;20255;-55
2024/04/09 10:17:45;;;;;;;;;;;16.10;34.30;;;;;;22444804;26;20019;-54
2024/04/09 10:28:02;;;;;;;;;;;16.20;35.80;;;;;;22505527;26;19935;-58
2024/04/09 10:38:04;;;;;;;;;;;15.90;33.60;;;;;;22611807;26;19936;-55
2024/04/09 10:48:07;;;;;;;;;;;15.40;36.90;;;;;;22570262;26;19935;-55
2024/04/09 10:58:13;;;;;;;;;;;15.70;36.00;;;;;;22570892;26;20255;-55
2024/04/09 11:08:22;;;;;;;;;;;15.80;33.00;;;;;;22571985;26;20237;-55
2024/04/09 11:18:24;;;;;;;;;;;14.80;32.50;;;;;;22571453;26;19929;-56
2024/04/09 11:28:26;;;;;;;;;;;15.20;33.70;;;;;;22568054;26;19935;-55
2024/04/09 11:38:27;;;;;;;;;;;15.70;34.50;;;;;;22569640;26;19944;-57
2024/04/09 11:48:29;;;;;;;;;;;16.40;34.10;;;;;;22563864;26;19961;-57
2024/04/09 11:58:31;;;;;;;;;;;16.00;32.30;;;;;;22547521;26;19966;-57
2024/04/09 12:08:33;;;;;;;;;;;15.80;31.50;;;;;;22563189;26;19936;-57
2024/04/09 12:18:34;;;;;;;;;;;15.70;32.50;;;;;;22568728;26;20402;-56
2024/04/09 12:28:36;;;;;;;;;;;15.60;32.00;;;;;;22566967;26;19944;-58
2024/04/09 12:38:37;;;;;;;;;;;15.70;32.10;;;;;;22576369;26;20029;-57
2024/04/09 12:48:39;;;;;;;;;;;15.90;32.00;;;;;;22580148;26;19928;-56
2024/04/09 12:58:40;;;;;;;;;;;16.10;32.30;;;;;;22580168;26;19936;-57
2024/04/09 13:08:42;;;;;;;;;;;16.20;31.80;;;;;;22578351;26;19928;-58
2024/04/09 13:18:44;;;;;;;;;;;16.10;30.80;;;;;;22577919;26;19933;-56
2024/04/09 13:28:47;;;;;;;;;;;16.10;30.60;;;;;;22576994;26;19935;-57
2024/04/09 13:38:48;;;;;;;;;;;16.10;31.30;;;;;;22578203;26;19928;-57
2024/04/09 13:48:51;;;;;;;;;;;16.30;31.20;;;;;;22575987;26;19928;-57
2024/04/09 13:58:53;;;;;;;;;;;16.30;31.90;;;;;;22657289;26;19935;-56
2024/04/09 14:08:54;;;;;;;;;;;16.60;32.40;;;;;;22726869;26;19996;-57
2024/04/09 14:18:56;;;;;;;;;;;16.50;31.90;;;;;;22726605;26;20262;-57
2024/04/09 14:28:58;;;;;;;;;;;16.60;31.40;;;;;;22725550;26;20249;-56
2024/04/09 14:38:59;;;;;;;;;;;16.60;31.40;;;;;;22724911;26;19928;-58
2024/04/09 14:49:00;;;;;;;;;;;16.80;32.30;;;;;;22724638;26;20260;-57
2024/04/09 14:59:01;;;;;;;;;;;16.80;30.80;;;;;;22722722;26;19928;-57
2024/04/09 15:09:06;;;;;;;;;;;16.80;29.90;;;;;;22722270;26;19928;-57
2024/04/09 15:19:07;;;;;;;;;;;16.90;30.80;;;;;;22721085;26;19932;-58
2024/04/09 15:29:08;;;;;;;;;;;17.20;32.30;;;;;;22719156;26;19936;-58
2024/04/09 15:39:09;;;;;;;;;;;17.20;30.50;;;;;;22717034;26;19935;-57
2024/04/09 15:49:10;;;;;;;;;;;17.10;31.60;;;;;;22717904;26;19928;-55
2024/04/09 15:59:13;;;;;;;;;;;17.20;30.50;;;;;;22716610;26;19932;-56
2024/04/09 16:09:15;;;;;;;;;;;17.30;31.70;;;;;;22715412;26;19928;-55
2024/04/09 16:19:25;;;;;;;;;;;17.20;30.50;;;;;;22714524;26;19928;-57
2024/04/09 16:29:29;;;;;;;;;;;17.20;31.10;;;;;;22714134;26;19967;-55
2024/04/09 16:39:30;;;;;;;;;;;17.20;29.90;;;;;;22713350;26;19935;-58
2024/04/09 16:49:32;;;;;;;;;;;17.30;30.80;;;;;;22713434;26;19935;-55
2024/04/09 16:59:33;;;;;;;;;;;17.50;38.40;;;;;;22711728;26;19952;-55
2024/04/09 17:09:34;;;;;;;;;;;17.70;32.50;;;;;;22712438;26;20349;-58
2024/04/09 17:19:35;;;;;;;;;;;17.30;32.60;;;;;;22712601;26;20018;-57
2024/04/09 17:29:36;;;;;;;;;;;17.20;30.90;;;;;;22726473;26;19948;-56
2024/04/09 17:39:37;;;;;;;;;;;17.10;31.10;;;;;;22724828;26;20333;-58
2024/04/09 17:49:38;;;;;;;;;;;17.00;32.20;;;;;;22724288;26;19928;-55
2024/04/09 17:59:41;;;;;;;;;;;16.90;33.00;;;;;;22725334;26;19962;-56
2024/04/09 18:09:44;;;;;;;;;;;17.10;33.00;;;;;;22725228;26;19928;-58
2024/04/09 18:19:45;;;;;;;;;;;17.00;33.50;;;;;;22726121;26;19928;-59
2024/04/09 18:29:46;;;;;;;;;;;16.80;33.70;;;;;;22725828;26;19977;-60
2024/04/09 18:39:48;;;;;;;;;;;16.70;34.80;;;;;;22726799;26;19935;-59
2024/04/09 18:49:49;;;;;;;;;;;16.70;34.40;;;;;;22723205;26;19996;-60
2024/04/09 18:59:51;;;;;;;;;;;16.70;35.70;;;;;;22722779;26;19938;-59
2024/04/09 19:09:52;;;;;;;;;;;16.50;34.60;;;;;;22724041;26;19934;-60
2024/04/09 19:19:54;;;;;;;;;;;16.40;35.10;;;;;;22723970;26;20238;-59
2024/04/09 19:29:55;;;;;;;;;;;16.40;35.30;;;;;;22721943;26;20361;-60
2024/04/09 19:39:57;;;;;;;;;;;16.20;35.10;;;;;;22720940;26;20025;-59
2024/04/09 19:50:00;;;;;;;;;;;16.10;34.80;;;;;;22718768;26;19928;-58
2024/04/09 20:00:02;;;;;;;;;;;15.90;35.40;;;;;;22718515;26;20365;-59
2024/04/09 20:10:05;;;;;;;;;;;15.80;35.50;;;;;;22718594;26;19940;-60
2024/04/09 20:20:09;;;;;;;;;;;15.70;35.60;;;;;;22718268;26;19932;-60
2024/04/09 20:30:12;;;;;;;;;;;15.60;36.10;;;;;;22719122;26;19928;-60
2024/04/09 20:40:13;;;;;;;;;;;15.40;36.50;;;;;;22717686;26;19928;-60
2024/04/09 20:50:14;;;;;;;;;;;15.20;37.10;;;;;;22717019;26;20345;-60
2024/04/09 21:00:15;;;;;;;;;;;15.10;37.70;;;;;;22726932;26;19928;-59
2024/04/09 21:10:17;;;;;;;;;;;15.00;38.30;;;;;;22729771;26;19995;-59
2024/04/09 21:20:18;;;;;;;;;;;14.70;39.20;;;;;;22729535;26;20246;-58
2024/04/09 21:30:20;;;;;;;;;;;14.60;39.90;;;;;;22729325;26;20033;-59
2024/04/09 21:40:21;;;;;;;;;;;14.50;40.70;;;;;;22728798;26;19955;-59
2024/04/09 21:50:22;;;;;;;;;;;14.40;41.00;;;;;;22728182;26;19928;-59
2024/04/09 22:00:24;;;;;;;;;;;14.30;41.30;;;;;;22727731;26;19934;-58
2024/04/09 22:10:26;;;;;;;;;;;14.30;41.10;;;;;;22727075;26;20421;-58
2024/04/09 22:20:39;;;;;;;;;;;14.30;41.10;;;;;;22726581;26;19928;-59
2024/04/09 22:30:40;;;;;;;;;;;14.20;41.50;;;;;;22727232;26;19928;-59
2024/04/09 22:40:41;;;;;;;;;;;14.20;41.20;;;;;;22724855;26;19928;-57
2024/04/09 22:50:42;;;;;;;;;;;14.20;41.40;;;;;;22726830;26;19943;-60
2024/04/09 23:00:43;;;;;;;;;;;14.20;41.60;;;;;;22724502;26;20010;-60
2024/04/09 23:10:44;;;;;;;;;;;14.20;42.10;;;;;;22722833;26;20322;-59
2024/04/09 23:20:45;;;;;;;;;;;14.10;42.70;;;;;;22722625;26;19928;-58
2024/04/09 23:30:48;;;;;;;;;;;14.00;42.90;;;;;;22721580;26;19972;-60
2024/04/09 23:40:49;;;;;;;;;;;13.90;43.20;;;;;;22720758;26;19928;-58
2024/04/09 23:51:04;;;;;;;;;;;13.80;43.70;;;;;;22721762;26;20245;-58
